Mooresboro, NC (28114)

10:03 AM EST on January 23, 2017 (GMT -0500)
Lattimore | | Change Station

Elev 935 ft 35.31 °N, 81.66 °W | Updated 23 seconds ago

Overcast
Overcast
50.3 °F
Feels Like 50.3 °F
N
1.0
Wind Variable Wind from NNW

Today
High -- | Low -- °F
--% Chance of Precip.
Yesterday
High -- | Low -- °F
Precip. -- in
Pressure 29.25 in
Visibility 10.0 miles
Clouds Overcast 1100 ft
Dew Point 48 °F
Humidity 91%
Rainfall 0.00 in
Snow Depth Not available.
7:31 AM 5:46 PM
Waning Crescent, 18% visible
METAR KEHO 231445Z AUTO 17005KT 10SM OVC011 09/09 A2925 RMK AO2 T00940094
Pressure 29.25 in
Visibility 10.0 miles
Clouds Overcast 1100 ft
Dew Point 48 °F
Humidity 91%
Rainfall 0.00 in
Snow Depth Not available.
7:31 AM 5:46 PM
Waning Crescent, 18% visible
METAR KEHO 231445Z AUTO 17005KT 10SM OVC011 09/09 A2925 RMK AO2 T00940094

Get Your Daily Forecast Email!

Thanks for signing up!

Be on the lookout for a verification email in your inbox.

You'll start receiving the daily forecast at 8 AM.

×

10-Day Weather Forecast

Almanac

Astronomy

Jan. 23, 2017 Rise Set
Actual Time
Civil Twilight
Nautical Twilight
Astronomical Twilight
Moon
Length of Visible Light
Length of Day
Tomorrow will be .
, % of the Moon is Illuminated

Today's Extremes

State Highs State Lows

Community

WunderPhotos

Upload Photos

1,962,540 photos uploaded!

WunderBlog® & News

Nearby

Air Quality

  Air Quality AQ Index Pollutant
Not available.

Snow Depth

Station Depth Elevation

Earthquake Activity

City Distance Mag. Time & Date
Minimum magnitude displayed is 2.5.

Coastal Water Temperatures

Place Temperature

Stations

Nearby Weather Stations

Station Location Temp. Windchill Dew Point Humidity Wind Precip. Elev Updated Type
                   

Watches & Warnings

There are currently no watches in effect.